Flight Track Log - Related Links

Times and Time Zones

All times are in EDT time to prevent confusion due to time zone crossing. See the DAL1331 flight status page for this flight to view local times or setup timezone preferences in your user account.

Time Position Orientation Groundspeed Altitude Reporting Facility
EDT Latitude Longitude Course Direction KTS MPH feet Rate Location/Type
Thu 07:39:15 PM 39.1500 -76.6500 296° West 185 213 1,600  Level Potomac TRACON
Thu 07:40:16 PM 39.1333 -76.7167 252° West 271 312 3,700 2,628 Climbing Potomac TRACON
Thu 07:41:00 PM 39.2000 -77.1215 270° West  Level FlightAware Approximate
Thu 07:41:16 PM 39.1667 -76.8000 297° West 283 326 6,900  Level Potomac TRACON
Thu 07:42:00 PM 39.2826 -77.2158 322° Northwest  Level FlightAware Approximate
Thu 07:42:10 PM 39.2000 -76.9000 293° West 287 330 9,700  Level Potomac TRACON
Thu 07:43:00 PM 39.3721 -77.3162 293° West  Level FlightAware Approximate
Thu 07:43:16 PM 39.2167 -77.0000 282° West 312 359 11,800  Level Potomac TRACON
Thu 07:44:00 PM 39.4055 -77.4646 296° West  Level FlightAware Approximate
Thu 07:44:17 PM 39.2500 -77.1167 290° West 365 420 13,100  Level Potomac TRACON
Thu 07:46:37 PM 39.3711 -77.3931 300° West 396 456 17,300 1,788 Climbing Washington Center
Thu 07:47:35 PM 39.4253 -77.5206 299° West 401 461 19,000 3,387 Climbing Washington Center
Thu 07:50:22 PM 39.5519 -77.9042 293° West 417 480 30,000 1,559 Climbing Cleveland Center
Thu 07:51:22 PM 39.5950 -78.0508 291° West 425 489 24,900 -2,000 Descending Cleveland Center
Thu 07:52:22 PM 39.6397 -78.1972 292° West 430 495 26,000 1,050 Climbing Cleveland Center
Thu 07:53:22 PM 39.6886 -78.3439 293° West 435 501 27,000 950 Climbing Cleveland Center
Thu 07:54:22 PM 39.7539 -78.4850 301° West 445 512 27,900 950 Climbing Cleveland Center
Thu 07:55:22 PM 39.8147 -78.6292 299° West 445 512 28,900 1,041 Climbing Cleveland Center
Thu 07:56:23 PM 39.8797 -78.7706 301° West 450 518 30,000 550 Climbing Cleveland Center
Thu 07:57:22 PM 39.9444 -78.9097 301° West 455 524 30,000  Level Cleveland Center
Thu 07:58:22 PM 40.0108 -79.0461 302° West 455 524 30,000  Level Cleveland Center
Thu 07:59:22 PM 40.0692 -79.1858 299° West 450 518 30,000  Level Cleveland Center
Thu 08:00:22 PM 40.1353 -79.3258 302° West 445 512 30,000  Level Cleveland Center
Thu 08:01:22 PM 40.1972 -79.4633 301° West 445 512 30,000  Level Cleveland Center
Thu 08:02:23 PM 40.2611 -79.6064 300° West 445 512 30,000  Level Cleveland Center
Thu 08:03:23 PM 40.3247 -79.7469 301° West 445 512 30,000  Level Cleveland Center
Thu 08:04:22 PM 40.3861 -79.8853 300° West 445 512 30,000  Level Cleveland Center
Thu 08:05:23 PM 40.4558 -80.0456 300° West 451 519 30,000  Level Cleveland Center
Thu 08:06:23 PM 40.5167 -80.1869 300° West 451 519 30,000  Level Cleveland Center
Thu 08:07:22 PM 40.5797 -80.3317 300° West 456 525 30,000  Level Cleveland Center
Thu 08:08:23 PM 40.6425 -80.4736 300° West 456 525 30,000  Level Cleveland Center
Thu 08:09:22 PM 40.7050 -80.6158 300° West 450 518 30,000  Level Cleveland Center
Thu 08:10:22 PM 40.7633 -80.7642 297° West 455 524 30,000  Level Cleveland Center
Thu 08:11:23 PM 40.8172 -80.9122 296° West 455 524 30,000  Level Cleveland Center
Thu 08:12:22 PM 40.8667 -81.0664 293° West 450 518 30,000  Level Cleveland Center
Thu 08:13:22 PM 40.9139 -81.2014 295° West 450 518 30,000  Level Cleveland Center
Thu 08:14:23 PM 40.9672 -81.3503 295° West 445 512 30,000  Level Cleveland Center
Thu 08:15:22 PM 41.0181 -81.5022 294° West 445 512 30,000  Level Cleveland Center
Thu 08:16:22 PM 41.0689 -81.6517 294° West 445 512 30,000  Level Cleveland Center
Thu 08:17:23 PM 41.1278 -81.8208 295° West 445 512 30,000  Level Cleveland Center
Thu 08:18:22 PM 41.1844 -81.9681 297° West 445 512 30,000  Level Cleveland Center
Thu 08:19:22 PM 41.2344 -82.1239 293° West 445 512 30,000  Level Cleveland Center
Thu 08:20:23 PM 41.2867 -82.2717 295° West 454 522 30,000  Level Cleveland Center
Thu 08:21:22 PM 41.3383 -82.4278 294° West 454 522 30,000  Level Cleveland Center
Thu 08:22:22 PM 41.3900 -82.5786 295° West 454 522 30,000  Level Cleveland Center
Thu 08:23:22 PM 41.4356 -82.7158 294° West 454 522 30,000  Level Cleveland Center
Thu 08:24:22 PM 41.4869 -82.8672 294° West 454 522 30,000  Level Cleveland Center
Thu 08:25:22 PM 41.5378 -83.0244 293° West 454 522 30,000  Level Cleveland Center
Thu 08:26:22 PM 41.5867 -83.1733 294° West 448 516 30,000  Level Cleveland Center
Thu 08:27:22 PM 41.6411 -83.3394 294° West 443 510 30,000  Level Cleveland Center
Thu 08:28:22 PM 41.6894 -83.4917 293° West 448 516 30,000  Level Cleveland Center
Thu 08:29:22 PM 41.7419 -83.6444 295° West 448 516 30,000  Level Cleveland Center
Thu 08:30:22 PM 41.7917 -83.8000 293° West 448 516 30,000  Level Cleveland Center
Thu 08:31:22 PM 41.8394 -83.9558 292° West 448 516 30,000  Level Cleveland Center
Thu 08:32:22 PM 41.8892 -84.1092 294° West 453 521 30,000  Level Cleveland Center
Thu 08:33:22 PM 41.9383 -84.2653 293° West 453 521 30,000  Level Cleveland Center
Thu 08:34:46 PM 42.0069 -84.4692 294° West 455 524 30,000  Level Chicago Center
Thu 08:35:48 PM 42.0550 -84.6283 292° West 461 531 30,000  Level Chicago Center
Thu 08:36:50 PM 42.1050 -84.7900 293° West 467 537 30,000  Level Chicago Center
Thu 08:37:52 PM 42.1550 -84.9508 293° West 467 537 30,000  Level Chicago Center
Thu 08:38:54 PM 42.2150 -85.1461 293° West 469 540 30,000  Level Chicago Center
Thu 08:39:56 PM 42.2647 -85.3072 293° West 467 537 30,000  Level Chicago Center
Thu 08:40:59 PM 42.3139 -85.4697 292° West 466 536 30,000  Level Chicago Center
Thu 08:42:01 PM 42.3625 -85.6325 292° West 467 537 30,000  Level Chicago Center
Thu 08:43:03 PM 42.4114 -85.7939 292° West 465 535 30,000  Level Chicago Center
Thu 08:44:05 PM 42.4589 -85.9575 292° West 465 535 30,000  Level Chicago Center
Thu 08:45:07 PM 42.5069 -86.1203 292° West 464 534 30,000  Level Chicago Center
Thu 08:46:09 PM 42.5639 -86.3153 292° West 464 534 30,000  Level Chicago Center
Thu 08:47:11 PM 42.6103 -86.4758 291° West 458 527 30,000  Level Chicago Center
Thu 08:48:13 PM 42.6572 -86.6358 292° West 454 522 30,000  Level Chicago Center
Thu 08:49:15 PM 42.7022 -86.7961 291° West 454 522 30,000  Level Chicago Center
Thu 08:50:17 PM 42.7469 -86.9561 291° West 448 516 30,000  Level Chicago Center
Thu 08:51:20 PM 42.7928 -87.1167 291° West 454 522 30,000  Level Chicago Center
Thu 08:52:22 PM 42.8467 -87.3100 291° West 454 522 30,000  Level Chicago Center
Thu 08:53:24 PM 42.8883 -87.4567 291° West 456 525 30,000  Level Chicago Center
Thu 08:54:26 PM 42.9611 -87.6286 300° West 454 522 30,000  Level Chicago Center
Thu 08:55:28 PM 43.0328 -87.7714 305° West 457 526 30,000  Level Chicago Center
Thu 08:56:30 PM 43.1033 -87.9142 304° West 453 521 30,000  Level Chicago Center
Thu 08:57:32 PM 43.1719 -88.0603 303° West 455 524 30,000  Level Chicago Center
Thu 08:58:34 PM 43.2400 -88.2003 304° West 444 511 30,000  Level Chicago Center
Thu 08:59:36 PM 43.3086 -88.3419 304° West 444 511 30,000  Level Chicago Center
Thu 09:00:38 PM 43.3911 -88.5097 304° West 453 521 30,000  Level Chicago Center
Thu 09:01:40 PM 43.4519 -88.6397 303° West 457 526 30,000  Level Chicago Center
Thu 09:02:43 PM 43.5322 -88.8058 304° West 447 514 30,000  Level Chicago Center
Thu 09:03:45 PM 43.6006 -88.9494 303° West 446 513 30,000  Level Chicago Center
Thu 09:04:47 PM 43.6686 -89.0933 303° West 447 514 30,000  Level Chicago Center
Thu 09:05:49 PM 43.7364 -89.2361 303° West 445 512 30,000  Level Chicago Center
Thu 09:06:51 PM 43.8050 -89.3786 304° West 445 512 30,000  Level Chicago Center
Thu 09:07:53 PM 43.8831 -89.5478 303° West 447 514 30,000  Level Chicago Center
Thu 09:08:55 PM 43.9511 -89.6917 303° West 446 513 30,000  Level Chicago Center
Thu 09:09:57 PM 44.0178 -89.8367 303° West 446 513 30,000  Level Chicago Center
Thu 09:10:59 PM 44.0864 -89.9814 303° West 447 514 30,000  Level Chicago Center
Thu 09:12:01 PM 44.1647 -90.1228 308° West 459 528 30,000  Level Chicago Center
Thu 09:13:03 PM 44.2408 -90.2989 301° West 456 525 30,000  Level Chicago Center
Thu 09:14:06 PM 44.2972 -90.4350 300° West 453 521 30,000  Level Chicago Center
Thu 09:15:08 PM 44.3608 -90.5867 300° West 456 525 30,000  Level Chicago Center
Thu 09:16:10 PM 44.4367 -90.7692 300° West 457 526 30,000  Level Chicago Center
Thu 09:17:12 PM 44.4994 -90.9225 300° West 459 528 30,000  Level Chicago Center
Thu 09:18:14 PM 44.5622 -91.0753 300° West 459 528 30,000 -145 Level Chicago Center
Thu 09:19:16 PM 44.6244 -91.2275 300° West 456 525 29,700 -1,697 Descending Chicago Center
Thu 09:20:39 PM 44.7197 -91.4617 300° West 449 517 25,900 -2,772 Descending Minneapolis Center
Thu 09:21:41 PM 44.7808 -91.6094 300° West 442 509 23,000 -2,613 Descending Minneapolis Center
Thu 09:22:43 PM 44.8378 -91.7514 300° West 427 491 20,500 -2,516 Descending Minneapolis Center
Thu 09:23:45 PM 44.8897 -91.8839 299° West 396 456 17,800 -2,806 Descending Minneapolis Center
Thu 09:24:47 PM 44.9411 -92.0144 299° West 384 442 14,700 -2,806 Descending Minneapolis Center
Thu 09:25:49 PM 44.9925 -92.1414 300° West 377 434 12,000 -1,776 Descending Minneapolis Center
Thu 09:26:52 PM 45.0444 -92.2956 296° West 366 421 11,000 -480 Descending Minneapolis Center
Thu 09:27:54 PM 45.0258 -92.4331 259° West 360 414 11,000  Level Minneapolis Center
Thu 09:28:56 PM 45.0039 -92.5717 257° West 363 418 11,000  Level Minneapolis Center
Thu 09:29:58 PM 44.9828 -92.7100 258° West 363 418 11,000 -97 Level Minneapolis Center
Thu 09:31:00 PM 44.9608 -92.8419 257° West 348 400 10,800 -927 Descending Minneapolis Center
Thu 09:32:01 PM 44.9408 -92.9669 257° West 275 316 9,100 -1,366 Descending Minneapolis Center
Thu 09:33:03 PM 44.9256 -93.0714 258° West 275 316 8,000 -532 Descending Minneapolis Center
Thu 09:34:05 PM 44.9675 -93.1636 303° West 284 327 8,000 -581 Level Minneapolis Center
Thu 09:35:07 PM 45.0111 -93.2542 304° West 282 325 6,800 -1,403 Descending Minneapolis Center
Thu 09:36:09 PM 45.0581 -93.3450 306° West 287 330 5,100 -919 Descending Minneapolis Center
Thu 09:37:11 PM 45.0803 -93.4414 288° West 214 246 4,900 -537 Descending Minneapolis Center
Thu 09:38:12 PM 45.0342 -93.4217 163° South 182 209 4,000 -885 Descending Minneapolis Center

Login

Don't have an account? Register now (free) for customized features, flight alerts, and more!